John James Audubon — WDE8037 — position and weather

sailwx.info

Track history (hours):
 
Tides and Currents Weather Stations Pressure Air Temp Water Temp Dewpoint Dewpoint Depression Visibility Wind Speed Wind Dir Waves Ship Positions

John James Audubon

Owner: Statue Cruises, Jersey City, NJ. More information available from US FCC via Universal Licensing System and Coast Guard Vessel Documentation Center.

Last reported at 2015-Apr-18 22:33 UTC. Time now 2015-Apr-19 09:28 UTC.
Position N 40°44' W 074°01'.

Length 37 m.

Type: Ship. MMSI: 367400770.

Date/timePositionNaut miles runAvg speedWind from/ knotsBaromVisibWave heightAir tempDewpointWater temp
2015-Apr-18 22:33N 40°44' W 074°01'2 1.7
2015-Apr-18 21:33N 40°42' W 074°01'1 1.4
2015-Apr-18 20:33N 40°41' W 074°03'2 2.1
2015-Apr-18 19:33N 40°42' W 074°00'0 0.0
2015-Apr-18 18:33N 40°42' W 074°00'2 2.2
2015-Apr-18 17:33N 40°41' W 074°03'2 2.1
2015-Apr-18 16:33N 40°42' W 074°00'0 0.0
2015-Apr-18 15:33N 40°42' W 074°00'2 1.9
2015-Apr-18 14:33N 40°41' W 074°02'2 1.9
2015-Apr-18 13:33N 40°42' W 074°00'2 0.1
2015-Apr-17 22:20N 40°44' W 074°01'0 0.0
2015-Apr-17 21:33N 40°44' W 074°01'3 2.8
2015-Apr-17 20:33N 40°41' W 074°02'2 1.8
2015-Apr-17 19:33N 40°42' W 074°00'0 0.0
2015-Apr-17 18:33N 40°42' W 074°00'2 1.6
2015-Apr-17 17:33N 40°41' W 074°02'2 1.6
2015-Apr-17 16:33N 40°42' W 074°00'0 0.0
2015-Apr-17 15:33N 40°42' W 074°00'2 2.2
2015-Apr-17 14:33N 40°41' W 074°03'2 2.2
2015-Apr-17 13:33N 40°42' W 074°00'2 0.1
2015-Apr-16 22:12N 40°44' W 074°01'2 2.8
2015-Apr-16 21:33N 40°42' W 074°01'1 1.4
2015-Apr-16 20:33N 40°41' W 074°03'2 2.0
2015-Apr-16 19:34N 40°42' W 074°00'0 0.0
2015-Apr-16 18:32N 40°42' W 074°00'2 1.7
2015-Apr-16 17:33N 40°41' W 074°02'2 1.6
2015-Apr-16 16:33N 40°42' W 074°00'0 0.0
2015-Apr-16 15:33N 40°42' W 074°00'1 1.2
2015-Apr-16 14:33N 40°42' W 074°02'1 1.2
2015-Apr-16 13:33N 40°42' W 074°00'2 1.6
2015-Apr-16 12:33N 40°44' W 074°01'0 0.0
2015-Apr-16 11:33N 40°44' W 074°01'0 0.0
2015-Apr-15 21:34N 40°44' W 074°01'3 2.6
2015-Apr-15 20:33N 40°41' W 074°02'2 1.6
2015-Apr-15 19:33N 40°42' W 074°00'0 0.0
2015-Apr-15 18:33N 40°42' W 074°00'1 1.1
2015-Apr-15 17:33N 40°42' W 074°01'1 1.1
2015-Apr-15 16:33N 40°42' W 074°00'0 0.0
2015-Apr-15 15:33N 40°42' W 074°00'2 2.0
2015-Apr-15 14:33N 40°41' W 074°02'2 2.0
2015-Apr-15 13:33N 40°42' W 074°00'2 0.1
2015-Apr-14 22:24N 40°44' W 074°01'0 0.0
2015-Apr-14 21:34N 40°44' W 074°01'2 2.4
2015-Apr-14 20:34N 40°42' W 074°02'1 1.4
2015-Apr-14 19:33N 40°42' W 074°00'0 0.0
2015-Apr-14 18:33N 40°42' W 074°00'1 1.2
2015-Apr-14 17:33N 40°42' W 074°01'1 1.2
2015-Apr-14 16:33N 40°42' W 074°00'0 0.0
2015-Apr-14 15:33N 40°42' W 074°00'2 2.1
2015-Apr-14 14:34N 40°41' W 074°03'2 2.1
2015-Apr-14 13:33N 40°42' W 074°00'1 0.1
2015-Apr-13 21:34N 40°43' W 074°01'1 1.2
2015-Apr-13 20:34N 40°41' W 074°02'2 1.6
2015-Apr-13 19:33N 40°42' W 074°00'0 0.0
2015-Apr-13 18:33N 40°42' W 074°00'1 1.2
2015-Apr-13 17:34N 40°42' W 074°02'1 1.2
2015-Apr-13 16:34N 40°42' W 074°00'0 0.0
2015-Apr-13 15:34N 40°42' W 074°00'1 1.0
2015-Apr-13 14:33N 40°42' W 074°01'1 0.6
2015-Apr-13 13:33N 40°42' W 074°01'2 2.0
2015-Apr-13 12:33N 40°44' W 074°01'0 0.0
2015-Apr-12 21:25N 40°44' W 074°01'3 3.0
2015-Apr-12 20:33N 40°41' W 074°02'2 1.8
2015-Apr-12 19:33N 40°42' W 074°00'0 0.0
2015-Apr-12 18:33N 40°42' W 074°00'2 2.0
2015-Apr-12 17:33N 40°41' W 074°02'2 2.0
2015-Apr-12 16:33N 40°42' W 074°00'0 0.0
2015-Apr-12 15:33N 40°42' W 074°00'2 2.2
2015-Apr-12 14:33N 40°41' W 074°03'1 1.5
2015-Apr-12 13:34N 40°42' W 074°01'0 0.0
2015-Apr-12 04:34N 40°42' W 074°01'1 0.7
2015-Apr-12 03:34N 40°42' W 074°00'4 3.8
2015-Apr-12 02:33N 40°46' W 074°00'4 3.8
2015-Apr-12 01:34N 40°42' W 074°00'0 0.2
2015-Apr-12 00:33N 40°42' W 074°00'1 0.8
2015-Apr-11 23:33N 40°42' W 073°59'2 2.3
2015-Apr-11 22:34N 40°42' W 074°02'2 1.5
2015-Apr-11 21:34N 40°42' W 074°00'2 2.0
2015-Apr-11 20:34N 40°41' W 074°02'2 2.0
2015-Apr-11 19:33N 40°42' W 074°00'0 0.0
2015-Apr-11 18:33N 40°42' W 074°00'2 1.5
2015-Apr-11 17:33N 40°42' W 074°02'2 1.5
2015-Apr-11 16:33N 40°42' W 074°00'0 0.0
2015-Apr-11 15:33N 40°42' W 074°00'1 1.4
2015-Apr-11 14:33N 40°42' W 074°02'1 1.5
2015-Apr-11 13:33N 40°42' W 074°00'2 1.6
2015-Apr-11 12:33N 40°44' W 074°01'0 0.0
2015-Apr-11 00:14N 40°44' W 074°01'2 2.6
2015-Apr-10 23:33N 40°43' W 074°02'2 1.8
2015-Apr-10 22:33N 40°44' W 074°01'1 0.6
2015-Apr-10 21:33N 40°43' W 074°01'3 2.6
2015-Apr-10 20:33N 40°41' W 074°02'2 1.9
2015-Apr-10 19:33N 40°42' W 074°00'0 0.0
2015-Apr-10 18:33N 40°42' W 074°00'2 2.0
2015-Apr-10 17:33N 40°41' W 074°03'2 2.0
2015-Apr-10 16:33N 40°42' W 074°00'0 0.0
2015-Apr-10 15:33N 40°42' W 074°00'1 0.8
2015-Apr-10 14:33N 40°42' W 074°01'1 0.8
2015-Apr-10 13:33N 40°42' W 074°00'2 1.6
2015-Apr-10 12:33N 40°44' W 074°01'0 0.0
2015-Apr-10 11:33N 40°44' W 074°01'0 0.0
2015-Apr-09 21:34N 40°44' W 074°01'2 2.2
2015-Apr-09 20:33N 40°41' W 074°02'1 1.5
2015-Apr-09 19:33N 40°42' W 074°00'0 0.0
2015-Apr-09 18:33N 40°42' W 074°00'2 1.9
2015-Apr-09 17:33N 40°41' W 074°02'2 1.9
2015-Apr-09 16:33N 40°42' W 074°00'0 0.0
2015-Apr-09 15:34N 40°42' W 074°00'2 2.0
2015-Apr-09 14:33N 40°41' W 074°03'2 2.0
2015-Apr-09 13:33N 40°42' W 074°00'2 1.6
2015-Apr-09 12:33N 40°44' W 074°01'0 0.0
2015-Apr-09 11:33N 40°44' W 074°01'0 0.0
2015-Apr-08 22:33N 40°44' W 074°01'  
Track history (hours):
 
Tides and Currents Weather Stations Pressure Air Temp Water Temp Dewpoint Dewpoint Depression Visibility Wind Speed Wind Dir Waves Ship Positions

John James Audubon

Owner: Statue Cruises, Jersey City, NJ. More information available from US FCC via Universal Licensing System and Coast Guard Vessel Documentation Center.

Last reported at 2015-Apr-18 22:33 UTC. Time now 2015-Apr-19 09:28 UTC.
Position N 40°44' W 074°01'.

Length 37 m.

Type: Ship. MMSI: 367400770.

Date/timePositionNaut miles runAvg speedWind from/ knotsBaromVisibWave heightAir tempDewpointWater temp
2015-Apr-18 22:33N 40°44' W 074°01'2 1.7
2015-Apr-18 21:33N 40°42' W 074°01'1 1.4
2015-Apr-18 20:33N 40°41' W 074°03'2 2.1
2015-Apr-18 19:33N 40°42' W 074°00'0 0.0
2015-Apr-18 18:33N 40°42' W 074°00'2 2.2
2015-Apr-18 17:33N 40°41' W 074°03'2 2.1
2015-Apr-18 16:33N 40°42' W 074°00'0 0.0
2015-Apr-18 15:33N 40°42' W 074°00'2 1.9
2015-Apr-18 14:33N 40°41' W 074°02'2 1.9
2015-Apr-18 13:33N 40°42' W 074°00'2 0.1
2015-Apr-17 22:20N 40°44' W 074°01'0 0.0
2015-Apr-17 21:33N 40°44' W 074°01'3 2.8
2015-Apr-17 20:33N 40°41' W 074°02'2 1.8
2015-Apr-17 19:33N 40°42' W 074°00'0 0.0
2015-Apr-17 18:33N 40°42' W 074°00'2 1.6
2015-Apr-17 17:33N 40°41' W 074°02'2 1.6
2015-Apr-17 16:33N 40°42' W 074°00'0 0.0
2015-Apr-17 15:33N 40°42' W 074°00'2 2.2
2015-Apr-17 14:33N 40°41' W 074°03'2 2.2
2015-Apr-17 13:33N 40°42' W 074°00'2 0.1
2015-Apr-16 22:12N 40°44' W 074°01'2 2.8
2015-Apr-16 21:33N 40°42' W 074°01'1 1.4
2015-Apr-16 20:33N 40°41' W 074°03'2 2.0
2015-Apr-16 19:34N 40°42' W 074°00'0 0.0
2015-Apr-16 18:32N 40°42' W 074°00'2 1.7
2015-Apr-16 17:33N 40°41' W 074°02'2 1.6
2015-Apr-16 16:33N 40°42' W 074°00'0 0.0
2015-Apr-16 15:33N 40°42' W 074°00'1 1.2
2015-Apr-16 14:33N 40°42' W 074°02'1 1.2
2015-Apr-16 13:33N 40°42' W 074°00'2 1.6
2015-Apr-16 12:33N 40°44' W 074°01'0 0.0
2015-Apr-16 11:33N 40°44' W 074°01'0 0.0
2015-Apr-15 21:34N 40°44' W 074°01'3 2.6
2015-Apr-15 20:33N 40°41' W 074°02'2 1.6
2015-Apr-15 19:33N 40°42' W 074°00'0 0.0
2015-Apr-15 18:33N 40°42' W 074°00'1 1.1
2015-Apr-15 17:33N 40°42' W 074°01'1 1.1
2015-Apr-15 16:33N 40°42' W 074°00'0 0.0
2015-Apr-15 15:33N 40°42' W 074°00'2 2.0
2015-Apr-15 14:33N 40°41' W 074°02'2 2.0
2015-Apr-15 13:33N 40°42' W 074°00'2 0.1
2015-Apr-14 22:24N 40°44' W 074°01'0 0.0
2015-Apr-14 21:34N 40°44' W 074°01'2 2.4
2015-Apr-14 20:34N 40°42' W 074°02'1 1.4
2015-Apr-14 19:33N 40°42' W 074°00'0 0.0
2015-Apr-14 18:33N 40°42' W 074°00'1 1.2
2015-Apr-14 17:33N 40°42' W 074°01'1 1.2
2015-Apr-14 16:33N 40°42' W 074°00'0 0.0
2015-Apr-14 15:33N 40°42' W 074°00'2 2.1
2015-Apr-14 14:34N 40°41' W 074°03'2 2.1
2015-Apr-14 13:33N 40°42' W 074°00'1 0.1
2015-Apr-13 21:34N 40°43' W 074°01'1 1.2
2015-Apr-13 20:34N 40°41' W 074°02'2 1.6
2015-Apr-13 19:33N 40°42' W 074°00'0 0.0
2015-Apr-13 18:33N 40°42' W 074°00'1 1.2
2015-Apr-13 17:34N 40°42' W 074°02'1 1.2
2015-Apr-13 16:34N 40°42' W 074°00'0 0.0
2015-Apr-13 15:34N 40°42' W 074°00'1 1.0
2015-Apr-13 14:33N 40°42' W 074°01'1 0.6
2015-Apr-13 13:33N 40°42' W 074°01'2 2.0
2015-Apr-13 12:33N 40°44' W 074°01'0 0.0
2015-Apr-12 21:25N 40°44' W 074°01'3 3.0
2015-Apr-12 20:33N 40°41' W 074°02'2 1.8
2015-Apr-12 19:33N 40°42' W 074°00'0 0.0
2015-Apr-12 18:33N 40°42' W 074°00'2 2.0
2015-Apr-12 17:33N 40°41' W 074°02'2 2.0
2015-Apr-12 16:33N 40°42' W 074°00'0 0.0
2015-Apr-12 15:33N 40°42' W 074°00'2 2.2
2015-Apr-12 14:33N 40°41' W 074°03'1 1.5
2015-Apr-12 13:34N 40°42' W 074°01'0 0.0
2015-Apr-12 04:34N 40°42' W 074°01'1 0.7
2015-Apr-12 03:34N 40°42' W 074°00'4 3.8
2015-Apr-12 02:33N 40°46' W 074°00'4 3.8
2015-Apr-12 01:34N 40°42' W 074°00'0 0.2
2015-Apr-12 00:33N 40°42' W 074°00'1 0.8
2015-Apr-11 23:33N 40°42' W 073°59'2 2.3
2015-Apr-11 22:34N 40°42' W 074°02'2 1.5
2015-Apr-11 21:34N 40°42' W 074°00'2 2.0
2015-Apr-11 20:34N 40°41' W 074°02'2 2.0
2015-Apr-11 19:33N 40°42' W 074°00'0 0.0
2015-Apr-11 18:33N 40°42' W 074°00'2 1.5
2015-Apr-11 17:33N 40°42' W 074°02'2 1.5
2015-Apr-11 16:33N 40°42' W 074°00'0 0.0
2015-Apr-11 15:33N 40°42' W 074°00'1 1.4
2015-Apr-11 14:33N 40°42' W 074°02'1 1.5
2015-Apr-11 13:33N 40°42' W 074°00'2 1.6
2015-Apr-11 12:33N 40°44' W 074°01'0 0.0
2015-Apr-11 00:14N 40°44' W 074°01'2 2.6
2015-Apr-10 23:33N 40°43' W 074°02'2 1.8
2015-Apr-10 22:33N 40°44' W 074°01'1 0.6
2015-Apr-10 21:33N 40°43' W 074°01'3 2.6
2015-Apr-10 20:33N 40°41' W 074°02'2 1.9
2015-Apr-10 19:33N 40°42' W 074°00'0 0.0
2015-Apr-10 18:33N 40°42' W 074°00'2 2.0
2015-Apr-10 17:33N 40°41' W 074°03'2 2.0
2015-Apr-10 16:33N 40°42' W 074°00'0 0.0
2015-Apr-10 15:33N 40°42' W 074°00'1 0.8
2015-Apr-10 14:33N 40°42' W 074°01'1 0.8
2015-Apr-10 13:33N 40°42' W 074°00'2 1.6
2015-Apr-10 12:33N 40°44' W 074°01'0 0.0
2015-Apr-10 11:33N 40°44' W 074°01'0 0.0
2015-Apr-09 21:34N 40°44' W 074°01'2 2.2
2015-Apr-09 20:33N 40°41' W 074°02'1 1.5
2015-Apr-09 19:33N 40°42' W 074°00'0 0.0
2015-Apr-09 18:33N 40°42' W 074°00'2 1.9
2015-Apr-09 17:33N 40°41' W 074°02'2 1.9
2015-Apr-09 16:33N 40°42' W 074°00'0 0.0
2015-Apr-09 15:34N 40°42' W 074°00'2 2.0
2015-Apr-09 14:33N 40°41' W 074°03'2 2.0
2015-Apr-09 13:33N 40°42' W 074°00'2 1.6
2015-Apr-09 12:33N 40°44' W 074°01'0 0.0
2015-Apr-09 11:33N 40°44' W 074°01'0 0.0
2015-Apr-08 22:33N 40°44' W 074°01'  

Dump ship's entire track history